sensor_id;sensor_type;location;lat;lon;timestamp;P1;durP1;ratioP1;P2;durP2;ratioP2
15629;SDS011;7914;50.842;0.166;2022-12-16T00:01:10;2.87;;;2.77;;
15629;SDS011;7914;50.842;0.166;2022-12-16T00:03:37;2.73;;;2.63;;
15629;SDS011;7914;50.842;0.166;2022-12-16T00:06:04;2.70;;;2.60;;
15629;SDS011;7914;50.842;0.166;2022-12-16T00:08:32;3.30;;;3.20;;
15629;SDS011;7914;50.842;0.166;2022-12-16T00:10:59;3.30;;;3.20;;
15629;SDS011;7914;50.842;0.166;2022-12-16T00:13:26;2.90;;;2.80;;
15629;SDS011;7914;50.842;0.166;2022-12-16T00:15:52;3.00;;;2.90;;
15629;SDS011;7914;50.842;0.166;2022-12-16T00:18:18;2.90;;;2.80;;
15629;SDS011;7914;50.842;0.166;2022-12-16T00:20:47;2.70;;;2.60;;
15629;SDS011;7914;50.842;0.166;2022-12-16T00:23:16;2.97;;;2.87;;
15629;SDS011;7914;50.842;0.166;2022-12-16T00:25:42;2.70;;;2.60;;
15629;SDS011;7914;50.842;0.166;2022-12-16T00:28:09;2.87;;;2.77;;
15629;SDS011;7914;50.842;0.166;2022-12-16T00:30:36;3.00;;;2.90;;
15629;SDS011;7914;50.842;0.166;2022-12-16T00:33:02;2.80;;;2.70;;
15629;SDS011;7914;50.842;0.166;2022-12-16T00:35:28;2.93;;;2.83;;
15629;SDS011;7914;50.842;0.166;2022-12-16T00:37:54;3.10;;;3.00;;
15629;SDS011;7914;50.842;0.166;2022-12-16T00:40:20;2.87;;;2.77;;
15629;SDS011;7914;50.842;0.166;2022-12-16T00:42:46;3.50;;;3.40;;
15629;SDS011;7914;50.842;0.166;2022-12-16T00:45:12;3.23;;;3.13;;
15629;SDS011;7914;50.842;0.166;2022-12-16T00:47:38;3.70;;;3.60;;
15629;SDS011;7914;50.842;0.166;2022-12-16T00:50:03;3.40;;;3.30;;
15629;SDS011;7914;50.842;0.166;2022-12-16T00:52:29;3.53;;;3.43;;
15629;SDS011;7914;50.842;0.166;2022-12-16T00:54:55;3.23;;;3.13;;
15629;SDS011;7914;50.842;0.166;2022-12-16T00:57:21;3.50;;;3.40;;
15629;SDS011;7914;50.842;0.166;2022-12-16T00:59:47;3.63;;;3.53;;
15629;SDS011;7914;50.842;0.166;2022-12-16T01:02:12;3.50;;;3.40;;
15629;SDS011;7914;50.842;0.166;2022-12-16T01:04:38;3.30;;;3.20;;
15629;SDS011;7914;50.842;0.166;2022-12-16T01:07:04;3.50;;;3.40;;
15629;SDS011;7914;50.842;0.166;2022-12-16T01:09:30;3.60;;;3.50;;
15629;SDS011;7914;50.842;0.166;2022-12-16T01:11:55;3.77;;;3.67;;
15629;SDS011;7914;50.842;0.166;2022-12-16T01:14:21;3.70;;;3.60;;
15629;SDS011;7914;50.842;0.166;2022-12-16T01:16:47;3.80;;;3.70;;
15629;SDS011;7914;50.842;0.166;2022-12-16T01:19:13;4.00;;;3.90;;
15629;SDS011;7914;50.842;0.166;2022-12-16T01:21:38;3.63;;;3.53;;
15629;SDS011;7914;50.842;0.166;2022-12-16T01:24:04;3.80;;;3.70;;
15629;SDS011;7914;50.842;0.166;2022-12-16T01:26:30;3.87;;;3.77;;
15629;SDS011;7914;50.842;0.166;2022-12-16T01:28:56;3.80;;;3.70;;
15629;SDS011;7914;50.842;0.166;2022-12-16T01:31:22;3.90;;;3.80;;
15629;SDS011;7914;50.842;0.166;2022-12-16T01:33:48;3.70;;;3.60;;
15629;SDS011;7914;50.842;0.166;2022-12-16T01:36:14;3.70;;;3.60;;
15629;SDS011;7914;50.842;0.166;2022-12-16T01:38:41;3.80;;;3.70;;
15629;SDS011;7914;50.842;0.166;2022-12-16T01:41:11;3.70;;;3.60;;
15629;SDS011;7914;50.842;0.166;2022-12-16T01:43:39;3.70;;;3.60;;
15629;SDS011;7914;50.842;0.166;2022-12-16T01:51:42;3.70;;;3.60;;
15629;SDS011;7914;50.842;0.166;2022-12-16T01:54:10;3.40;;;3.30;;
15629;SDS011;7914;50.842;0.166;2022-12-16T01:56:43;3.60;;;3.50;;
15629;SDS011;7914;50.842;0.166;2022-12-16T01:59:15;3.40;;;3.30;;
15629;SDS011;7914;50.842;0.166;2022-12-16T02:01:42;3.40;;;3.30;;
15629;SDS011;7914;50.842;0.166;2022-12-16T02:04:08;3.37;;;3.27;;
15629;SDS011;7914;50.842;0.166;2022-12-16T02:06:34;3.30;;;3.20;;
15629;SDS011;7914;50.842;0.166;2022-12-16T02:09:01;3.43;;;3.33;;
15629;SDS011;7914;50.842;0.166;2022-12-16T02:14:09;3.47;;;3.37;;
15629;SDS011;7914;50.842;0.166;2022-12-16T02:16:52;3.23;;;3.13;;
15629;SDS011;7914;50.842;0.166;2022-12-16T02:19:33;3.30;;;3.20;;
15629;SDS011;7914;50.842;0.166;2022-12-16T02:27:48;3.73;;;3.63;;
15629;SDS011;7914;50.842;0.166;2022-12-16T02:30:29;3.70;;;3.60;;
15629;SDS011;7914;50.842;0.166;2022-12-16T02:39:01;3.70;;;3.60;;
15629;SDS011;7914;50.842;0.166;2022-12-16T02:42:34;3.70;;;3.60;;
15629;SDS011;7914;50.842;0.166;2022-12-16T02:44:47;3.70;;;3.60;;
15629;SDS011;7914;50.842;0.166;2022-12-16T02:47:28;3.30;;;3.20;;
15629;SDS011;7914;50.842;0.166;2022-12-16T02:49:55;3.70;;;3.60;;
15629;SDS011;7914;50.842;0.166;2022-12-16T02:52:22;3.43;;;3.33;;
15629;SDS011;7914;50.842;0.166;2022-12-16T02:54:57;3.80;;;3.70;;
15629;SDS011;7914;50.842;0.166;2022-12-16T03:00:10;3.53;;;3.43;;
15629;SDS011;7914;50.842;0.166;2022-12-16T03:05:28;3.37;;;3.27;;
15629;SDS011;7914;50.842;0.166;2022-12-16T03:08:08;3.80;;;3.70;;
15629;SDS011;7914;50.842;0.166;2022-12-16T03:10:39;3.60;;;3.50;;
15629;SDS011;7914;50.842;0.166;2022-12-16T03:13:12;3.87;;;3.77;;
15629;SDS011;7914;50.842;0.166;2022-12-16T03:15:41;3.63;;;3.53;;
15629;SDS011;7914;50.842;0.166;2022-12-16T03:18:08;3.53;;;3.43;;
15629;SDS011;7914;50.842;0.166;2022-12-16T03:20:40;3.70;;;3.60;;
15629;SDS011;7914;50.842;0.166;2022-12-16T03:23:14;3.80;;;3.70;;
15629;SDS011;7914;50.842;0.166;2022-12-16T03:25:44;3.87;;;3.77;;
15629;SDS011;7914;50.842;0.166;2022-12-16T03:30:46;3.70;;;3.60;;
15629;SDS011;7914;50.842;0.166;2022-12-16T03:33:22;4.00;;;3.90;;
15629;SDS011;7914;50.842;0.166;2022-12-16T03:35:55;4.07;;;3.97;;
15629;SDS011;7914;50.842;0.166;2022-12-16T03:38:26;4.13;;;3.93;;
15629;SDS011;7914;50.842;0.166;2022-12-16T03:40:52;4.30;;;4.10;;
15629;SDS011;7914;50.842;0.166;2022-12-16T03:43:20;3.50;;;3.40;;
15629;SDS011;7914;50.842;0.166;2022-12-16T03:45:48;3.60;;;3.50;;
15629;SDS011;7914;50.842;0.166;2022-12-16T03:48:20;4.17;;;4.03;;
15629;SDS011;7914;50.842;0.166;2022-12-16T03:50:49;4.00;;;3.90;;
15629;SDS011;7914;50.842;0.166;2022-12-16T03:53:14;3.83;;;3.73;;
15629;SDS011;7914;50.842;0.166;2022-12-16T03:55:40;3.70;;;3.60;;
15629;SDS011;7914;50.842;0.166;2022-12-16T03:58:06;3.70;;;3.60;;
15629;SDS011;7914;50.842;0.166;2022-12-16T04:00:31;3.80;;;3.70;;
15629;SDS011;7914;50.842;0.166;2022-12-16T04:02:57;3.70;;;3.60;;
15629;SDS011;7914;50.842;0.166;2022-12-16T04:05:23;3.67;;;3.57;;
15629;SDS011;7914;50.842;0.166;2022-12-16T04:07:49;3.90;;;3.80;;
15629;SDS011;7914;50.842;0.166;2022-12-16T04:10:15;4.07;;;3.97;;
15629;SDS011;7914;50.842;0.166;2022-12-16T04:12:41;4.00;;;3.90;;
15629;SDS011;7914;50.842;0.166;2022-12-16T04:15:26;3.90;;;3.80;;
15629;SDS011;7914;50.842;0.166;2022-12-16T04:18:14;3.70;;;3.60;;
15629;SDS011;7914;50.842;0.166;2022-12-16T04:21:01;4.00;;;3.90;;
15629;SDS011;7914;50.842;0.166;2022-12-16T04:23:47;4.03;;;3.93;;
15629;SDS011;7914;50.842;0.166;2022-12-16T04:26:33;3.90;;;3.80;;
15629;SDS011;7914;50.842;0.166;2022-12-16T04:29:18;3.87;;;3.77;;
15629;SDS011;7914;50.842;0.166;2022-12-16T04:31:44;3.73;;;3.63;;
15629;SDS011;7914;50.842;0.166;2022-12-16T04:34:09;3.80;;;3.70;;
15629;SDS011;7914;50.842;0.166;2022-12-16T04:36:55;4.10;;;4.00;;
15629;SDS011;7914;50.842;0.166;2022-12-16T04:39:41;3.90;;;3.80;;
15629;SDS011;7914;50.842;0.166;2022-12-16T04:42:25;4.30;;;4.10;;
15629;SDS011;7914;50.842;0.166;2022-12-16T04:45:09;4.50;;;4.30;;
15629;SDS011;7914;50.842;0.166;2022-12-16T04:47:54;4.10;;;4.00;;
15629;SDS011;7914;50.842;0.166;2022-12-16T04:50:38;4.00;;;3.90;;
15629;SDS011;7914;50.842;0.166;2022-12-16T04:53:23;4.00;;;3.90;;
15629;SDS011;7914;50.842;0.166;2022-12-16T04:56:08;4.10;;;4.00;;
15629;SDS011;7914;50.842;0.166;2022-12-16T04:58:52;3.80;;;3.70;;
15629;SDS011;7914;50.842;0.166;2022-12-16T05:01:36;3.90;;;3.80;;
15629;SDS011;7914;50.842;0.166;2022-12-16T05:04:20;3.67;;;3.57;;
15629;SDS011;7914;50.842;0.166;2022-12-16T05:07:04;3.60;;;3.50;;
15629;SDS011;7914;50.842;0.166;2022-12-16T05:09:49;3.80;;;3.70;;
15629;SDS011;7914;50.842;0.166;2022-12-16T05:12:33;3.60;;;3.50;;
15629;SDS011;7914;50.842;0.166;2022-12-16T05:15:17;3.70;;;3.60;;
15629;SDS011;7914;50.842;0.166;2022-12-16T05:18:12;3.87;;;3.77;;
15629;SDS011;7914;50.842;0.166;2022-12-16T05:20:58;4.00;;;3.90;;
15629;SDS011;7914;50.842;0.166;2022-12-16T05:23:44;4.00;;;3.90;;
15629;SDS011;7914;50.842;0.166;2022-12-16T05:26:28;4.40;;;4.20;;
15629;SDS011;7914;50.842;0.166;2022-12-16T05:29:12;4.00;;;3.90;;
15629;SDS011;7914;50.842;0.166;2022-12-16T05:31:56;4.30;;;4.10;;
15629;SDS011;7914;50.842;0.166;2022-12-16T05:34:41;4.23;;;4.07;;
15629;SDS011;7914;50.842;0.166;2022-12-16T05:37:25;4.00;;;3.90;;
15629;SDS011;7914;50.842;0.166;2022-12-16T05:40:09;4.30;;;4.10;;
15629;SDS011;7914;50.842;0.166;2022-12-16T05:42:55;4.40;;;4.20;;
15629;SDS011;7914;50.842;0.166;2022-12-16T05:45:39;4.00;;;3.90;;
15629;SDS011;7914;50.842;0.166;2022-12-16T05:48:24;4.00;;;3.90;;
15629;SDS011;7914;50.842;0.166;2022-12-16T05:51:08;3.90;;;3.80;;
15629;SDS011;7914;50.842;0.166;2022-12-16T05:53:52;3.70;;;3.60;;
15629;SDS011;7914;50.842;0.166;2022-12-16T05:56:37;3.80;;;3.70;;
15629;SDS011;7914;50.842;0.166;2022-12-16T05:59:21;4.00;;;3.90;;
15629;SDS011;7914;50.842;0.166;2022-12-16T06:02:05;3.90;;;3.80;;
15629;SDS011;7914;50.842;0.166;2022-12-16T06:04:50;3.83;;;3.73;;
15629;SDS011;7914;50.842;0.166;2022-12-16T06:07:34;4.00;;;3.90;;
15629;SDS011;7914;50.842;0.166;2022-12-16T06:10:18;4.07;;;3.97;;
15629;SDS011;7914;50.842;0.166;2022-12-16T06:13:03;3.80;;;3.70;;
15629;SDS011;7914;50.842;0.166;2022-12-16T06:15:47;3.90;;;3.80;;
15629;SDS011;7914;50.842;0.166;2022-12-16T06:18:31;3.83;;;3.73;;
15629;SDS011;7914;50.842;0.166;2022-12-16T06:21:15;4.30;;;4.10;;
15629;SDS011;7914;50.842;0.166;2022-12-16T06:24:00;4.03;;;3.93;;
15629;SDS011;7914;50.842;0.166;2022-12-16T06:26:44;3.90;;;3.80;;
15629;SDS011;7914;50.842;0.166;2022-12-16T06:29:28;4.20;;;4.03;;
15629;SDS011;7914;50.842;0.166;2022-12-16T06:32:12;4.00;;;3.90;;
15629;SDS011;7914;50.842;0.166;2022-12-16T06:34:57;3.97;;;3.87;;
15629;SDS011;7914;50.842;0.166;2022-12-16T06:37:41;4.20;;;4.00;;
15629;SDS011;7914;50.842;0.166;2022-12-16T06:40:25;3.80;;;3.70;;
15629;SDS011;7914;50.842;0.166;2022-12-16T06:43:09;3.97;;;3.87;;
15629;SDS011;7914;50.842;0.166;2022-12-16T06:45:54;3.90;;;3.80;;
15629;SDS011;7914;50.842;0.166;2022-12-16T06:48:38;3.70;;;3.60;;
15629;SDS011;7914;50.842;0.166;2022-12-16T06:51:22;3.90;;;3.80;;
15629;SDS011;7914;50.842;0.166;2022-12-16T06:54:06;3.87;;;3.77;;
15629;SDS011;7914;50.842;0.166;2022-12-16T06:56:51;3.80;;;3.70;;
15629;SDS011;7914;50.842;0.166;2022-12-16T06:59:35;4.00;;;3.90;;
15629;SDS011;7914;50.842;0.166;2022-12-16T07:02:19;4.00;;;3.90;;
15629;SDS011;7914;50.842;0.166;2022-12-16T07:05:03;4.10;;;4.00;;
15629;SDS011;7914;50.842;0.166;2022-12-16T07:07:49;3.50;;;3.40;;
15629;SDS011;7914;50.842;0.166;2022-12-16T07:10:33;3.80;;;3.70;;
15629;SDS011;7914;50.842;0.166;2022-12-16T07:13:18;3.73;;;3.63;;
15629;SDS011;7914;50.842;0.166;2022-12-16T07:16:03;3.53;;;3.43;;
15629;SDS011;7914;50.842;0.166;2022-12-16T07:18:47;3.70;;;3.60;;
15629;SDS011;7914;50.842;0.166;2022-12-16T07:21:31;3.53;;;3.43;;
15629;SDS011;7914;50.842;0.166;2022-12-16T07:24:16;3.47;;;3.37;;
15629;SDS011;7914;50.842;0.166;2022-12-16T07:27:00;3.60;;;3.50;;
15629;SDS011;7914;50.842;0.166;2022-12-16T07:29:44;3.40;;;3.30;;
15629;SDS011;7914;50.842;0.166;2022-12-16T07:32:29;3.70;;;3.60;;
15629;SDS011;7914;50.842;0.166;2022-12-16T07:35:13;3.40;;;3.30;;
15629;SDS011;7914;50.842;0.166;2022-12-16T07:37:57;3.77;;;3.67;;
15629;SDS011;7914;50.842;0.166;2022-12-16T07:40:41;3.40;;;3.30;;
15629;SDS011;7914;50.842;0.166;2022-12-16T07:43:25;3.23;;;3.13;;
15629;SDS011;7914;50.842;0.166;2022-12-16T07:46:09;3.10;;;3.00;;
15629;SDS011;7914;50.842;0.166;2022-12-16T07:48:54;3.00;;;2.90;;
15629;SDS011;7914;50.842;0.166;2022-12-16T07:51:38;3.10;;;3.00;;
15629;SDS011;7914;50.842;0.166;2022-12-16T07:54:22;3.00;;;2.90;;
15629;SDS011;7914;50.842;0.166;2022-12-16T07:57:07;2.77;;;2.67;;
15629;SDS011;7914;50.842;0.166;2022-12-16T07:59:51;3.17;;;3.07;;
15629;SDS011;7914;50.842;0.166;2022-12-16T08:02:35;3.33;;;3.23;;
15629;SDS011;7914;50.842;0.166;2022-12-16T08:05:20;3.50;;;3.40;;
15629;SDS011;7914;50.842;0.166;2022-12-16T08:08:04;3.50;;;3.40;;
15629;SDS011;7914;50.842;0.166;2022-12-16T08:10:48;3.77;;;3.67;;
15629;SDS011;7914;50.842;0.166;2022-12-16T08:13:33;3.37;;;3.27;;
15629;SDS011;7914;50.842;0.166;2022-12-16T08:16:17;3.40;;;3.30;;
15629;SDS011;7914;50.842;0.166;2022-12-16T08:19:01;3.40;;;3.30;;
15629;SDS011;7914;50.842;0.166;2022-12-16T08:21:45;3.40;;;3.30;;
15629;SDS011;7914;50.842;0.166;2022-12-16T08:24:29;3.37;;;3.27;;
15629;SDS011;7914;50.842;0.166;2022-12-16T08:27:14;3.30;;;3.20;;
15629;SDS011;7914;50.842;0.166;2022-12-16T08:29:58;3.37;;;3.27;;
15629;SDS011;7914;50.842;0.166;2022-12-16T08:32:42;3.70;;;3.60;;
15629;SDS011;7914;50.842;0.166;2022-12-16T08:35:26;3.37;;;3.27;;
15629;SDS011;7914;50.842;0.166;2022-12-16T08:38:10;3.43;;;3.33;;
15629;SDS011;7914;50.842;0.166;2022-12-16T08:40:54;3.27;;;3.17;;
15629;SDS011;7914;50.842;0.166;2022-12-16T08:43:39;3.13;;;3.03;;
15629;SDS011;7914;50.842;0.166;2022-12-16T08:46:23;3.40;;;3.30;;
15629;SDS011;7914;50.842;0.166;2022-12-16T08:49:07;3.57;;;3.47;;
15629;SDS011;7914;50.842;0.166;2022-12-16T08:51:51;3.60;;;3.50;;
15629;SDS011;7914;50.842;0.166;2022-12-16T08:54:36;3.30;;;3.20;;
15629;SDS011;7914;50.842;0.166;2022-12-16T08:57:20;3.47;;;3.37;;
15629;SDS011;7914;50.842;0.166;2022-12-16T09:00:05;3.37;;;3.27;;
15629;SDS011;7914;50.842;0.166;2022-12-16T09:02:56;3.40;;;3.30;;
15629;SDS011;7914;50.842;0.166;2022-12-16T09:05:41;3.20;;;3.10;;
15629;SDS011;7914;50.842;0.166;2022-12-16T09:08:25;3.50;;;3.40;;
15629;SDS011;7914;50.842;0.166;2022-12-16T09:11:10;3.40;;;3.30;;
15629;SDS011;7914;50.842;0.166;2022-12-16T09:13:54;3.43;;;3.33;;
15629;SDS011;7914;50.842;0.166;2022-12-16T09:16:38;3.30;;;3.20;;
15629;SDS011;7914;50.842;0.166;2022-12-16T09:19:22;3.30;;;3.20;;
15629;SDS011;7914;50.842;0.166;2022-12-16T09:22:07;3.60;;;3.50;;
15629;SDS011;7914;50.842;0.166;2022-12-16T09:24:51;3.20;;;3.10;;
15629;SDS011;7914;50.842;0.166;2022-12-16T09:27:36;3.33;;;3.23;;
15629;SDS011;7914;50.842;0.166;2022-12-16T09:30:20;3.20;;;3.10;;
15629;SDS011;7914;50.842;0.166;2022-12-16T09:33:05;3.27;;;3.17;;
15629;SDS011;7914;50.842;0.166;2022-12-16T09:35:49;3.27;;;3.17;;
15629;SDS011;7914;50.842;0.166;2022-12-16T09:38:33;3.13;;;3.03;;
15629;SDS011;7914;50.842;0.166;2022-12-16T09:51:11;3.30;;;3.20;;
15629;SDS011;7914;50.842;0.166;2022-12-16T09:53:56;2.80;;;2.70;;
15629;SDS011;7914;50.842;0.166;2022-12-16T09:56:43;2.80;;;2.70;;
15629;SDS011;7914;50.842;0.166;2022-12-16T09:59:29;3.13;;;3.03;;
15629;SDS011;7914;50.842;0.166;2022-12-16T10:02:18;3.10;;;3.00;;
15629;SDS011;7914;50.842;0.166;2022-12-16T10:05:08;2.80;;;2.70;;
15629;SDS011;7914;50.842;0.166;2022-12-16T10:07:57;3.00;;;2.90;;
15629;SDS011;7914;50.842;0.166;2022-12-16T10:10:53;3.00;;;2.90;;
15629;SDS011;7914;50.842;0.166;2022-12-16T10:13:56;3.00;;;2.90;;
15629;SDS011;7914;50.842;0.166;2022-12-16T10:19:45;3.10;;;3.00;;
15629;SDS011;7914;50.842;0.166;2022-12-16T10:22:34;3.10;;;3.00;;
15629;SDS011;7914;50.842;0.166;2022-12-16T10:25:27;2.80;;;2.70;;
15629;SDS011;7914;50.842;0.166;2022-12-16T10:31:20;2.40;;;2.30;;
15629;SDS011;7914;50.842;0.166;2022-12-16T10:34:09;2.60;;;2.50;;
15629;SDS011;7914;50.842;0.166;2022-12-16T10:36:57;2.70;;;2.60;;
15629;SDS011;7914;50.842;0.166;2022-12-16T10:39:43;2.70;;;2.60;;
15629;SDS011;7914;50.842;0.166;2022-12-16T10:42:35;2.60;;;2.50;;
15629;SDS011;7914;50.842;0.166;2022-12-16T10:45:27;2.40;;;2.30;;
15629;SDS011;7914;50.842;0.166;2022-12-16T10:48:18;2.50;;;2.40;;
15629;SDS011;7914;50.842;0.166;2022-12-16T10:51:13;2.43;;;2.33;;
15629;SDS011;7914;50.842;0.166;2022-12-16T10:54:00;2.20;;;2.10;;
15629;SDS011;7914;50.842;0.166;2022-12-16T11:03:31;1.87;;;1.87;;
15629;SDS011;7914;50.842;0.166;2022-12-16T11:06:27;2.07;;;1.97;;
15629;SDS011;7914;50.842;0.166;2022-12-16T11:12:19;1.80;;;1.80;;
15629;SDS011;7914;50.842;0.166;2022-12-16T11:15:20;1.87;;;1.87;;
15629;SDS011;7914;50.842;0.166;2022-12-16T11:18:13;1.60;;;1.60;;
15629;SDS011;7914;50.842;0.166;2022-12-16T11:21:10;1.70;;;1.70;;
15629;SDS011;7914;50.842;0.166;2022-12-16T11:24:12;1.60;;;1.60;;
15629;SDS011;7914;50.842;0.166;2022-12-16T11:27:02;1.50;;;1.50;;
15629;SDS011;7914;50.842;0.166;2022-12-16T11:33:10;1.97;;;1.90;;
15629;SDS011;7914;50.842;0.166;2022-12-16T11:36:12;1.60;;;1.60;;
15629;SDS011;7914;50.842;0.166;2022-12-16T11:38:57;1.70;;;1.70;;
15629;SDS011;7914;50.842;0.166;2022-12-16T11:41:42;1.50;;;1.50;;
15629;SDS011;7914;50.842;0.166;2022-12-16T11:44:44;1.33;;;1.33;;
15629;SDS011;7914;50.842;0.166;2022-12-16T11:51:04;1.50;;;1.50;;
15629;SDS011;7914;50.842;0.166;2022-12-16T11:53:55;1.30;;;1.30;;
15629;SDS011;7914;50.842;0.166;2022-12-16T11:56:43;1.60;;;1.60;;
15629;SDS011;7914;50.842;0.166;2022-12-16T11:59:44;1.23;;;1.23;;
15629;SDS011;7914;50.842;0.166;2022-12-16T12:05:55;1.40;;;1.40;;
15629;SDS011;7914;50.842;0.166;2022-12-16T12:08:53;1.40;;;1.40;;
15629;SDS011;7914;50.842;0.166;2022-12-16T12:11:46;1.30;;;1.30;;
15629;SDS011;7914;50.842;0.166;2022-12-16T12:14:46;1.50;;;1.50;;
15629;SDS011;7914;50.842;0.166;2022-12-16T12:17:40;1.47;;;1.47;;
15629;SDS011;7914;50.842;0.166;2022-12-16T12:20:34;1.40;;;1.40;;
15629;SDS011;7914;50.842;0.166;2022-12-16T12:26:59;1.40;;;1.40;;
15629;SDS011;7914;50.842;0.166;2022-12-16T12:29:52;1.40;;;1.40;;
15629;SDS011;7914;50.842;0.166;2022-12-16T12:36:12;1.40;;;1.40;;
15629;SDS011;7914;50.842;0.166;2022-12-16T12:49:04;1.30;;;1.30;;
15629;SDS011;7914;50.842;0.166;2022-12-16T12:58:08;1.50;;;1.50;;
15629;SDS011;7914;50.842;0.166;2022-12-16T13:00:55;1.60;;;1.60;;
15629;SDS011;7914;50.842;0.166;2022-12-16T13:03:42;1.63;;;1.63;;
15629;SDS011;7914;50.842;0.166;2022-12-16T13:06:30;1.70;;;1.70;;
15629;SDS011;7914;50.842;0.166;2022-12-16T13:15:07;1.60;;;1.60;;
15629;SDS011;7914;50.842;0.166;2022-12-16T13:20:46;1.60;;;1.60;;
15629;SDS011;7914;50.842;0.166;2022-12-16T13:23:40;1.67;;;1.67;;
15629;SDS011;7914;50.842;0.166;2022-12-16T13:26:27;1.70;;;1.70;;
15629;SDS011;7914;50.842;0.166;2022-12-16T13:34:58;1.50;;;1.50;;
15629;SDS011;7914;50.842;0.166;2022-12-16T13:37:53;1.50;;;1.50;;
15629;SDS011;7914;50.842;0.166;2022-12-16T13:41:08;1.50;;;1.50;;
15629;SDS011;7914;50.842;0.166;2022-12-16T13:44:10;1.70;;;1.70;;
15629;SDS011;7914;50.842;0.166;2022-12-16T13:46:56;1.50;;;1.50;;
15629;SDS011;7914;50.842;0.166;2022-12-16T13:49:44;1.57;;;1.57;;
15629;SDS011;7914;50.842;0.166;2022-12-16T13:55:31;1.60;;;1.60;;
15629;SDS011;7914;50.842;0.166;2022-12-16T14:01:22;1.80;;;1.80;;
15629;SDS011;7914;50.842;0.166;2022-12-16T14:04:26;1.93;;;1.93;;
15629;SDS011;7914;50.842;0.166;2022-12-16T14:07:15;1.50;;;1.50;;
15629;SDS011;7914;50.842;0.166;2022-12-16T14:10:02;1.60;;;1.60;;
15629;SDS011;7914;50.842;0.166;2022-12-16T14:12:50;1.67;;;1.67;;
15629;SDS011;7914;50.842;0.166;2022-12-16T14:15:52;1.40;;;1.40;;
15629;SDS011;7914;50.842;0.166;2022-12-16T14:18:44;1.40;;;1.40;;
15629;SDS011;7914;50.842;0.166;2022-12-16T14:21:37;1.67;;;1.67;;
15629;SDS011;7914;50.842;0.166;2022-12-16T14:24:27;1.53;;;1.53;;
15629;SDS011;7914;50.842;0.166;2022-12-16T14:27:13;1.50;;;1.50;;
15629;SDS011;7914;50.842;0.166;2022-12-16T14:30:00;2.00;;;1.90;;
15629;SDS011;7914;50.842;0.166;2022-12-16T14:32:46;1.60;;;1.60;;
15629;SDS011;7914;50.842;0.166;2022-12-16T14:35:30;1.60;;;1.60;;
15629;SDS011;7914;50.842;0.166;2022-12-16T14:38:27;1.57;;;1.57;;
15629;SDS011;7914;50.842;0.166;2022-12-16T14:41:13;1.73;;;1.73;;
15629;SDS011;7914;50.842;0.166;2022-12-16T14:44:00;1.60;;;1.60;;
15629;SDS011;7914;50.842;0.166;2022-12-16T14:46:48;1.43;;;1.43;;
15629;SDS011;7914;50.842;0.166;2022-12-16T14:49:35;1.50;;;1.50;;
15629;SDS011;7914;50.842;0.166;2022-12-16T14:52:30;1.60;;;1.60;;
15629;SDS011;7914;50.842;0.166;2022-12-16T14:58:16;1.80;;;1.80;;
15629;SDS011;7914;50.842;0.166;2022-12-16T15:01:12;1.70;;;1.70;;
15629;SDS011;7914;50.842;0.166;2022-12-16T15:03:59;1.93;;;1.83;;
15629;SDS011;7914;50.842;0.166;2022-12-16T15:06:48;1.70;;;1.70;;
15629;SDS011;7914;50.842;0.166;2022-12-16T15:09:38;1.40;;;1.40;;
15629;SDS011;7914;50.842;0.166;2022-12-16T15:12:31;1.50;;;1.50;;
15629;SDS011;7914;50.842;0.166;2022-12-16T15:18:17;1.73;;;1.63;;
15629;SDS011;7914;50.842;0.166;2022-12-16T15:21:05;1.73;;;1.73;;
15629;SDS011;7914;50.842;0.166;2022-12-16T15:23:50;1.63;;;1.63;;
15629;SDS011;7914;50.842;0.166;2022-12-16T15:26:35;1.60;;;1.60;;
15629;SDS011;7914;50.842;0.166;2022-12-16T15:29:52;1.70;;;1.70;;
15629;SDS011;7914;50.842;0.166;2022-12-16T15:32:33;1.60;;;1.60;;
15629;SDS011;7914;50.842;0.166;2022-12-16T15:38:15;2.03;;;1.93;;
15629;SDS011;7914;50.842;0.166;2022-12-16T15:41:01;1.70;;;1.70;;
15629;SDS011;7914;50.842;0.166;2022-12-16T15:43:47;1.73;;;1.73;;
15629;SDS011;7914;50.842;0.166;2022-12-16T15:46:32;1.67;;;1.67;;
15629;SDS011;7914;50.842;0.166;2022-12-16T15:49:33;1.90;;;1.90;;
15629;SDS011;7914;50.842;0.166;2022-12-16T15:55:29;1.70;;;1.70;;
15629;SDS011;7914;50.842;0.166;2022-12-16T15:58:27;1.97;;;1.90;;
15629;SDS011;7914;50.842;0.166;2022-12-16T16:01:15;1.53;;;1.53;;
15629;SDS011;7914;50.842;0.166;2022-12-16T16:04:21;1.73;;;1.73;;
15629;SDS011;7914;50.842;0.166;2022-12-16T16:07:16;1.80;;;1.80;;
15629;SDS011;7914;50.842;0.166;2022-12-16T16:10:22;1.80;;;1.80;;
15629;SDS011;7914;50.842;0.166;2022-12-16T16:13:08;1.73;;;1.73;;
15629;SDS011;7914;50.842;0.166;2022-12-16T16:15:52;1.90;;;1.90;;
15629;SDS011;7914;50.842;0.166;2022-12-16T16:18:37;1.87;;;1.87;;
15629;SDS011;7914;50.842;0.166;2022-12-16T16:21:22;1.90;;;1.90;;
15629;SDS011;7914;50.842;0.166;2022-12-16T16:24:07;2.10;;;2.00;;
15629;SDS011;7914;50.842;0.166;2022-12-16T16:26:52;2.07;;;1.97;;
15629;SDS011;7914;50.842;0.166;2022-12-16T16:29:37;1.90;;;1.90;;
15629;SDS011;7914;50.842;0.166;2022-12-16T16:32:21;1.80;;;1.80;;
15629;SDS011;7914;50.842;0.166;2022-12-16T16:35:06;2.10;;;2.00;;
15629;SDS011;7914;50.842;0.166;2022-12-16T16:37:50;1.80;;;1.80;;
15629;SDS011;7914;50.842;0.166;2022-12-16T16:40:42;2.00;;;1.90;;
15629;SDS011;7914;50.842;0.166;2022-12-16T16:43:28;2.00;;;1.90;;
15629;SDS011;7914;50.842;0.166;2022-12-16T16:49:03;2.13;;;2.03;;
15629;SDS011;7914;50.842;0.166;2022-12-16T16:51:52;1.80;;;1.80;;
15629;SDS011;7914;50.842;0.166;2022-12-16T16:54:36;1.97;;;1.90;;
15629;SDS011;7914;50.842;0.166;2022-12-16T16:57:21;2.30;;;2.20;;
15629;SDS011;7914;50.842;0.166;2022-12-16T17:00:05;2.10;;;2.00;;
15629;SDS011;7914;50.842;0.166;2022-12-16T17:02:49;2.30;;;2.20;;
15629;SDS011;7914;50.842;0.166;2022-12-16T17:05:34;2.20;;;2.10;;
15629;SDS011;7914;50.842;0.166;2022-12-16T17:08:18;2.20;;;2.10;;
15629;SDS011;7914;50.842;0.166;2022-12-16T17:11:02;2.00;;;1.90;;
15629;SDS011;7914;50.842;0.166;2022-12-16T17:13:51;2.60;;;2.50;;
15629;SDS011;7914;50.842;0.166;2022-12-16T17:16:35;2.43;;;2.33;;
15629;SDS011;7914;50.842;0.166;2022-12-16T17:19:20;2.30;;;2.20;;
15629;SDS011;7914;50.842;0.166;2022-12-16T17:22:04;2.30;;;2.20;;
15629;SDS011;7914;50.842;0.166;2022-12-16T17:24:48;2.30;;;2.20;;
15629;SDS011;7914;50.842;0.166;2022-12-16T17:27:33;2.37;;;2.27;;
15629;SDS011;7914;50.842;0.166;2022-12-16T17:30:19;2.47;;;2.37;;
15629;SDS011;7914;50.842;0.166;2022-12-16T17:33:07;2.30;;;2.20;;
15629;SDS011;7914;50.842;0.166;2022-12-16T17:35:51;2.17;;;2.07;;
15629;SDS011;7914;50.842;0.166;2022-12-16T17:38:36;2.10;;;2.00;;
15629;SDS011;7914;50.842;0.166;2022-12-16T17:41:22;2.13;;;2.03;;
15629;SDS011;7914;50.842;0.166;2022-12-16T17:44:06;2.10;;;2.00;;
15629;SDS011;7914;50.842;0.166;2022-12-16T17:46:51;2.13;;;2.03;;
15629;SDS011;7914;50.842;0.166;2022-12-16T17:49:35;2.13;;;2.03;;
15629;SDS011;7914;50.842;0.166;2022-12-16T17:52:19;2.07;;;1.97;;
15629;SDS011;7914;50.842;0.166;2022-12-16T17:55:03;2.17;;;2.07;;
15629;SDS011;7914;50.842;0.166;2022-12-16T17:57:48;2.20;;;2.10;;
15629;SDS011;7914;50.842;0.166;2022-12-16T18:00:32;1.90;;;1.90;;
15629;SDS011;7914;50.842;0.166;2022-12-16T18:03:18;2.10;;;2.00;;
15629;SDS011;7914;50.842;0.166;2022-12-16T18:06:02;1.83;;;1.83;;
15629;SDS011;7914;50.842;0.166;2022-12-16T18:08:50;1.70;;;1.70;;
15629;SDS011;7914;50.842;0.166;2022-12-16T18:11:35;1.60;;;1.60;;
15629;SDS011;7914;50.842;0.166;2022-12-16T18:14:19;1.70;;;1.70;;
15629;SDS011;7914;50.842;0.166;2022-12-16T18:17:03;1.87;;;1.87;;
15629;SDS011;7914;50.842;0.166;2022-12-16T18:19:48;2.10;;;2.00;;
15629;SDS011;7914;50.842;0.166;2022-12-16T18:22:32;2.10;;;2.00;;
15629;SDS011;7914;50.842;0.166;2022-12-16T18:25:17;1.70;;;1.70;;
15629;SDS011;7914;50.842;0.166;2022-12-16T18:28:01;1.80;;;1.80;;
15629;SDS011;7914;50.842;0.166;2022-12-16T18:30:46;2.10;;;2.00;;
15629;SDS011;7914;50.842;0.166;2022-12-16T18:33:30;1.90;;;1.90;;
15629;SDS011;7914;50.842;0.166;2022-12-16T18:36:14;2.07;;;1.97;;